createdAt,value
2017-12-22T00:00:11.487Z,1025.83
2017-12-22T00:01:11.416Z,1025.87
2017-12-22T00:02:11.401Z,1025.82
2017-12-22T00:03:11.389Z,1025.83
2017-12-22T00:04:11.364Z,1025.83
2017-12-22T00:05:11.352Z,1025.82
2017-12-22T00:06:11.327Z,1025.86
2017-12-22T00:07:11.302Z,1025.88
2017-12-22T00:08:11.290Z,1025.92
2017-12-22T00:09:11.273Z,1025.90
2017-12-22T00:10:11.247Z,1025.92
2017-12-22T00:11:11.231Z,1025.92
2017-12-22T00:12:11.210Z,1025.92
2017-12-22T00:13:11.192Z,1025.89
2017-12-22T00:14:11.170Z,1025.90
2017-12-22T00:15:11.163Z,1025.91
2017-12-22T00:16:11.168Z,1025.96
2017-12-22T00:17:11.117Z,1025.94
2017-12-22T00:18:11.100Z,1025.91
2017-12-22T00:19:11.080Z,1025.99
2017-12-22T00:20:11.061Z,1025.93
2017-12-22T00:21:11.041Z,1025.93
2017-12-22T00:22:11.028Z,1025.93
2017-12-22T00:23:11.011Z,1025.93
2017-12-22T00:24:10.988Z,1025.94
2017-12-22T00:25:10.970Z,1025.90
2017-12-22T00:26:10.954Z,1025.93
2017-12-22T00:27:10.933Z,1025.83
2017-12-22T00:28:10.909Z,1025.86
2017-12-22T00:29:10.899Z,1025.82
2017-12-22T00:30:10.885Z,1025.84
2017-12-22T00:31:10.859Z,1025.83
2017-12-22T00:32:10.836Z,1025.82
2017-12-22T00:33:10.821Z,1025.78
2017-12-22T00:34:10.804Z,1025.79
2017-12-22T00:35:10.779Z,1025.80
2017-12-22T00:36:10.788Z,1025.75
2017-12-22T00:37:10.750Z,1025.72
2017-12-22T00:38:10.730Z,1025.72
2017-12-22T00:39:10.714Z,1025.71
2017-12-22T00:40:10.694Z,1025.74
2017-12-22T00:41:10.674Z,1025.75
2017-12-22T00:42:10.653Z,1025.72
2017-12-22T00:43:10.633Z,1025.72
2017-12-22T00:44:10.619Z,1025.71
2017-12-22T00:45:10.623Z,1025.74
2017-12-22T00:46:10.578Z,1025.69
2017-12-22T00:47:10.558Z,1025.71
2017-12-22T00:48:10.546Z,1025.69
2017-12-22T00:49:10.523Z,1025.72
2017-12-22T00:50:10.498Z,1025.67
2017-12-22T00:51:10.491Z,1025.68
2017-12-22T00:52:10.465Z,1025.68
2017-12-22T00:53:10.444Z,1025.71
2017-12-22T00:54:10.429Z,1025.70
2017-12-22T00:55:10.405Z,1025.76
2017-12-22T00:56:10.386Z,1025.73
2017-12-22T00:57:10.368Z,1025.71
2017-12-22T00:58:10.349Z,1025.75
2017-12-22T00:59:10.334Z,1025.71
2017-12-22T01:00:10.316Z,1025.68
2017-12-22T01:01:10.297Z,1025.73
2017-12-22T01:02:10.291Z,1025.72
2017-12-22T01:03:10.250Z,1025.73
2017-12-22T01:04:10.245Z,1025.73
2017-12-22T01:05:10.219Z,1025.69
2017-12-22T01:06:10.202Z,1025.69
2017-12-22T01:07:10.197Z,1025.67
2017-12-22T01:08:10.172Z,1025.66
2017-12-22T01:09:13.149Z,1025.63
2017-12-22T01:10:10.126Z,1025.66
2017-12-22T01:11:10.107Z,1025.62
2017-12-22T01:12:10.086Z,1025.61
2017-12-22T01:13:10.071Z,1025.62
2017-12-22T01:14:10.051Z,1025.61
2017-12-22T01:15:10.027Z,1025.62
2017-12-22T01:16:10.011Z,1025.62
2017-12-22T01:17:09.994Z,1025.60
2017-12-22T01:18:09.975Z,1025.63
2017-12-22T01:19:09.979Z,1025.61
2017-12-22T01:20:09.939Z,1025.62
2017-12-22T01:21:09.921Z,1025.66
2017-12-22T01:22:09.901Z,1025.68
2017-12-22T01:23:09.890Z,1025.67
2017-12-22T01:24:09.856Z,1025.70
2017-12-22T01:25:09.887Z,1025.69
2017-12-22T01:26:09.825Z,1025.68
2017-12-22T01:27:09.802Z,1025.68
2017-12-22T01:28:09.779Z,1025.63
2017-12-22T01:29:09.780Z,1025.63
2017-12-22T01:30:09.781Z,1025.61
2017-12-22T01:31:09.732Z,1025.63
2017-12-22T01:32:09.711Z,1025.64
2017-12-22T01:33:09.694Z,1025.64
2017-12-22T01:34:09.684Z,1025.57
2017-12-22T01:35:09.657Z,1025.57
2017-12-22T01:36:09.642Z,1025.57
2017-12-22T01:37:09.661Z,1025.57
2017-12-22T01:38:09.606Z,1025.55
2017-12-22T01:39:09.589Z,1025.55
2017-12-22T01:40:09.612Z,1025.55
2017-12-22T01:41:09.552Z,1025.57
2017-12-22T01:42:09.535Z,1025.54
2017-12-22T01:43:09.512Z,1025.55
2017-12-22T01:44:09.497Z,1025.57
2017-12-22T01:45:09.480Z,1025.56
2017-12-22T01:46:09.453Z,1025.53
2017-12-22T01:47:09.438Z,1025.57
2017-12-22T01:48:09.418Z,1025.53
2017-12-22T01:49:09.403Z,1025.57
2017-12-22T01:50:09.379Z,1025.60
2017-12-22T01:51:09.366Z,1025.61
2017-12-22T01:52:09.353Z,1025.57
2017-12-22T01:53:09.331Z,1025.57
2017-12-22T01:54:09.310Z,1025.58
2017-12-22T01:55:09.287Z,1025.59
2017-12-22T01:56:09.264Z,1025.61
2017-12-22T01:57:09.251Z,1025.58
2017-12-22T01:58:09.233Z,1025.58
2017-12-22T01:59:09.213Z,1025.56
2017-12-22T02:00:09.199Z,1025.61
2017-12-22T02:01:09.246Z,1025.56
2017-12-22T02:02:09.155Z,1025.57
2017-12-22T02:03:09.139Z,1025.58
2017-12-22T02:04:09.114Z,1025.58
2017-12-22T02:05:09.118Z,1025.56
2017-12-22T02:06:09.108Z,1025.56
2017-12-22T02:07:09.066Z,1025.56
2017-12-22T02:08:09.043Z,1025.53
2017-12-22T02:09:09.037Z,1025.54
2017-12-22T02:10:09.009Z,1025.47
2017-12-22T02:11:08.993Z,1025.49
2017-12-22T02:12:08.968Z,1025.50
2017-12-22T02:13:08.954Z,1025.46
2017-12-22T02:14:08.952Z,1025.49
2017-12-22T02:15:08.916Z,1025.48
2017-12-22T02:16:08.907Z,1025.44
2017-12-22T02:17:08.896Z,1025.40
2017-12-22T02:18:08.861Z,1025.40
2017-12-22T02:19:08.851Z,1025.42
2017-12-22T02:20:08.830Z,1025.34
2017-12-22T02:21:08.812Z,1025.36
2017-12-22T02:22:08.802Z,1025.36
2017-12-22T02:23:08.775Z,1025.33
2017-12-22T02:24:08.747Z,1025.32
2017-12-22T02:25:08.758Z,1025.31
2017-12-22T02:26:08.732Z,1025.31
2017-12-22T02:27:08.699Z,1025.25
2017-12-22T02:28:08.679Z,1025.26
2017-12-22T02:29:08.663Z,1025.22
2017-12-22T02:30:08.652Z,1025.20
2017-12-22T02:31:08.625Z,1025.20
2017-12-22T02:32:08.610Z,1025.20
2017-12-22T02:33:08.593Z,1025.22
2017-12-22T02:34:08.569Z,1025.20
2017-12-22T02:35:08.552Z,1025.19
2017-12-22T02:36:08.542Z,1025.14
2017-12-22T02:37:08.522Z,1025.12
2017-12-22T02:38:08.496Z,1025.12
2017-12-22T02:39:08.478Z,1025.12
2017-12-22T02:40:08.460Z,1025.14
2017-12-22T02:41:08.446Z,1025.08
2017-12-22T02:42:08.431Z,1025.08
2017-12-22T02:43:08.402Z,1025.06
2017-12-22T02:44:08.386Z,1025.10
2017-12-22T02:45:08.366Z,1025.05
2017-12-22T02:46:08.354Z,1025.09
2017-12-22T02:47:08.327Z,1025.07
2017-12-22T02:48:08.317Z,1025.04
2017-12-22T02:49:08.303Z,1025.04
2017-12-22T02:50:08.276Z,1025.06
2017-12-22T02:51:08.261Z,1025.04
2017-12-22T02:52:08.239Z,1025.04
2017-12-22T02:53:08.219Z,1025.03
2017-12-22T02:54:08.202Z,1025.03
2017-12-22T02:55:08.219Z,1025.05
2017-12-22T02:56:08.165Z,1025.02
2017-12-22T02:57:08.153Z,1025.06
2017-12-22T02:58:08.133Z,1025.06
2017-12-22T02:59:08.113Z,1025.06
2017-12-22T03:00:08.089Z,1025.05
2017-12-22T03:01:08.067Z,1025.06
2017-12-22T03:02:08.063Z,1025.06
2017-12-22T03:03:08.033Z,1025.05
2017-12-22T03:04:08.039Z,1025.03
2017-12-22T03:05:08.004Z,1025.02
2017-12-22T03:06:07.985Z,1025.03
2017-12-22T03:07:07.999Z,1025.01
2017-12-22T03:08:07.943Z,1025.02
2017-12-22T03:09:07.927Z,1024.99
2017-12-22T03:10:07.908Z,1025.00
2017-12-22T03:11:07.994Z,1025.00
2017-12-22T03:12:07.876Z,1024.96
2017-12-22T03:13:07.850Z,1024.97
2017-12-22T03:14:07.836Z,1024.94
2017-12-22T03:15:07.818Z,1024.94
2017-12-22T03:16:07.802Z,1024.96
2017-12-22T03:17:07.781Z,1024.93
2017-12-22T03:18:07.784Z,1024.88
2017-12-22T03:19:07.748Z,1024.91
2017-12-22T03:20:07.735Z,1024.86
2017-12-22T03:21:07.704Z,1024.88
2017-12-22T03:22:07.689Z,1024.92
2017-12-22T03:23:07.674Z,1024.87
2017-12-22T03:24:07.664Z,1024.86
2017-12-22T03:25:07.638Z,1024.93
2017-12-22T03:26:07.614Z,1024.93
2017-12-22T03:27:07.596Z,1024.91
2017-12-22T03:28:07.588Z,1024.89
2017-12-22T03:29:07.560Z,1024.87
2017-12-22T03:30:07.543Z,1024.89
2017-12-22T03:31:07.529Z,1024.89
2017-12-22T03:32:07.505Z,1024.88
2017-12-22T03:33:07.494Z,1024.87
2017-12-22T03:34:07.475Z,1024.85
2017-12-22T03:35:07.456Z,1024.87
2017-12-22T03:36:07.439Z,1024.85
2017-12-22T03:37:07.415Z,1024.86
2017-12-22T03:38:07.396Z,1024.82
2017-12-22T03:39:07.384Z,1024.82
2017-12-22T03:40:07.362Z,1024.82
2017-12-22T03:41:07.343Z,1024.81
2017-12-22T03:42:07.326Z,1024.83
2017-12-22T03:43:07.313Z,1024.81
2017-12-22T03:44:07.287Z,1024.76
2017-12-22T03:45:07.266Z,1024.83
2017-12-22T03:46:07.260Z,1024.79
2017-12-22T03:47:07.232Z,1024.79
2017-12-22T03:48:07.215Z,1024.80
2017-12-22T03:49:07.199Z,1024.81
2017-12-22T03:50:07.182Z,1024.78
2017-12-22T03:51:07.162Z,1024.83
2017-12-22T03:52:07.140Z,1024.80
2017-12-22T03:53:07.190Z,1024.79
2017-12-22T03:54:07.120Z,1024.77
2017-12-22T03:55:07.082Z,1024.75
2017-12-22T03:56:07.067Z,1024.78
2017-12-22T03:57:07.048Z,1024.73
2017-12-22T03:58:07.033Z,1024.75
2017-12-22T03:59:07.020Z,1024.74
2017-12-22T04:00:07.025Z,1024.70
2017-12-22T04:01:06.976Z,1024.73
2017-12-22T04:02:06.978Z,1024.69
2017-12-22T04:03:06.947Z,1024.72
2017-12-22T04:04:06.925Z,1024.72
2017-12-22T04:05:06.908Z,1024.77
2017-12-22T04:06:06.888Z,1024.79
2017-12-22T04:07:06.868Z,1024.80
2017-12-22T04:08:06.849Z,1024.82
2017-12-22T04:09:06.836Z,1024.79
2017-12-22T04:10:06.894Z,1024.75
2017-12-22T04:11:06.791Z,1024.76
2017-12-22T04:12:06.780Z,1024.77
2017-12-22T04:13:06.762Z,1024.77
2017-12-22T04:14:06.743Z,1024.73
2017-12-22T04:15:06.721Z,1024.75
2017-12-22T04:16:06.719Z,1024.77
2017-12-22T04:17:06.694Z,1024.76
2017-12-22T04:18:06.671Z,1024.74
2017-12-22T04:19:06.648Z,1024.79
2017-12-22T04:20:06.677Z,1024.78
2017-12-22T04:21:06.646Z,1024.82
2017-12-22T04:22:06.603Z,1024.82
2017-12-22T04:23:06.593Z,1024.83
2017-12-22T04:24:06.563Z,1024.80
2017-12-22T04:25:06.542Z,1024.80
2017-12-22T04:26:06.524Z,1024.78
2017-12-22T04:27:06.507Z,1024.82
2017-12-22T04:28:06.487Z,1024.78
2017-12-22T04:29:06.467Z,1024.78
2017-12-22T04:30:06.450Z,1024.78
2017-12-22T04:31:06.432Z,1024.76
2017-12-22T04:32:06.417Z,1024.74
2017-12-22T04:33:06.390Z,1024.77
2017-12-22T04:34:06.382Z,1024.81
2017-12-22T04:35:06.356Z,1024.83
2017-12-22T04:36:06.372Z,1024.80
2017-12-22T04:37:06.386Z,1024.77
2017-12-22T04:38:06.298Z,1024.74
2017-12-22T04:39:06.306Z,1024.74
2017-12-22T04:40:06.286Z,1024.75
2017-12-22T04:41:06.258Z,1024.71
2017-12-22T04:42:06.231Z,1024.74
2017-12-22T04:43:06.245Z,1024.72
2017-12-22T04:44:06.215Z,1024.73
2017-12-22T04:45:06.181Z,1024.72
2017-12-22T04:46:06.167Z,1024.73
2017-12-22T04:47:06.178Z,1024.75
2017-12-22T04:48:06.127Z,1024.74
2017-12-22T04:49:06.138Z,1024.76
2017-12-22T04:50:06.088Z,1024.74
2017-12-22T04:51:06.086Z,1024.76
2017-12-22T04:52:06.059Z,1024.77
2017-12-22T04:53:06.077Z,1024.76
2017-12-22T04:54:06.015Z,1024.73
2017-12-22T04:55:06.047Z,1024.82
2017-12-22T04:56:05.988Z,1024.81
2017-12-22T04:57:05.976Z,1024.82
2017-12-22T04:58:05.948Z,1024.79
2017-12-22T04:59:05.929Z,1024.79
2017-12-22T05:00:05.923Z,1024.77
2017-12-22T05:01:05.887Z,1024.74
2017-12-22T05:02:05.908Z,1024.70
2017-12-22T05:03:05.866Z,1024.68
2017-12-22T05:04:05.859Z,1024.66
2017-12-22T05:05:05.814Z,1024.66
2017-12-22T05:06:05.807Z,1024.60
2017-12-22T05:07:05.779Z,1024.57
2017-12-22T05:08:05.771Z,1024.59
2017-12-22T05:09:05.769Z,1024.58
2017-12-22T05:10:05.725Z,1024.55
2017-12-22T05:11:05.714Z,1024.56
2017-12-22T05:12:05.689Z,1024.61
2017-12-22T05:13:05.670Z,1024.60
2017-12-22T05:14:05.646Z,1024.62
2017-12-22T05:15:05.634Z,1024.67
2017-12-22T05:16:05.623Z,1024.66
2017-12-22T05:17:05.617Z,1024.66
2017-12-22T05:18:05.590Z,1024.62
2017-12-22T05:19:05.565Z,1024.62
2017-12-22T05:20:05.545Z,1024.63
2017-12-22T05:21:05.527Z,1024.69
2017-12-22T05:22:05.513Z,1024.62
2017-12-22T05:23:05.494Z,1024.62
2017-12-22T05:24:05.476Z,1024.64
2017-12-22T05:25:05.457Z,1024.68
2017-12-22T05:26:05.435Z,1024.67
2017-12-22T05:27:05.422Z,1024.68
2017-12-22T05:28:05.399Z,1024.67
2017-12-22T05:29:05.376Z,1024.68
2017-12-22T05:30:05.361Z,1024.67
2017-12-22T05:31:05.341Z,1024.68
2017-12-22T05:32:05.338Z,1024.64
2017-12-22T05:33:05.300Z,1024.67
2017-12-22T05:34:05.307Z,1024.64
2017-12-22T05:35:05.283Z,1024.64
2017-12-22T05:36:05.253Z,1024.65
2017-12-22T05:37:05.235Z,1024.61
2017-12-22T05:38:05.212Z,1024.66
2017-12-22T05:39:05.213Z,1024.71
2017-12-22T05:40:05.181Z,1024.66
2017-12-22T05:41:05.163Z,1024.69
2017-12-22T05:42:05.226Z,1024.67
2017-12-22T05:43:05.126Z,1024.65
2017-12-22T05:44:05.143Z,1024.61
2017-12-22T05:45:05.126Z,1024.62
2017-12-22T05:46:05.080Z,1024.61
2017-12-22T05:47:05.065Z,1024.61
2017-12-22T05:48:05.029Z,1024.61
2017-12-22T05:49:05.051Z,1024.55
2017-12-22T05:50:05.014Z,1024.56
2017-12-22T05:51:04.974Z,1024.59
2017-12-22T05:52:04.957Z,1024.58
2017-12-22T05:53:04.995Z,1024.61
2017-12-22T05:54:04.928Z,1024.61
2017-12-22T05:55:04.919Z,1024.56
2017-12-22T05:56:04.898Z,1024.62
2017-12-22T05:57:04.867Z,1024.61
2017-12-22T05:58:04.855Z,1024.59
2017-12-22T05:59:04.846Z,1024.60
2017-12-22T06:00:04.812Z,1024.60
2017-12-22T06:01:04.795Z,1024.64
2017-12-22T06:02:04.791Z,1024.68
2017-12-22T06:03:04.794Z,1024.63
2017-12-22T06:04:04.752Z,1024.60
2017-12-22T06:05:04.750Z,1024.56
2017-12-22T06:06:04.735Z,1024.60
2017-12-22T06:07:04.701Z,1024.59
2017-12-22T06:08:04.684Z,1024.65
2017-12-22T06:09:04.659Z,1024.63
2017-12-22T06:10:04.645Z,1024.67
2017-12-22T06:11:04.620Z,1024.70
2017-12-22T06:12:04.598Z,1024.69
2017-12-22T06:13:04.585Z,1024.65
2017-12-22T06:14:04.568Z,1024.64
2017-12-22T06:15:04.543Z,1024.58
2017-12-22T06:16:04.528Z,1024.62
2017-12-22T06:17:04.509Z,1024.61
2017-12-22T06:18:04.482Z,1024.59
2017-12-22T06:19:04.468Z,1024.60
2017-12-22T06:20:04.451Z,1024.61
2017-12-22T06:21:04.450Z,1024.63
2017-12-22T06:22:04.464Z,1024.64
2017-12-22T06:23:04.422Z,1024.67
2017-12-22T06:24:04.371Z,1024.67
2017-12-22T06:25:04.368Z,1024.66
2017-12-22T06:26:04.350Z,1024.67
2017-12-22T06:27:04.326Z,1024.70
2017-12-22T06:28:04.306Z,1024.67
2017-12-22T06:29:04.289Z,1024.69
2017-12-22T06:30:04.280Z,1024.65
2017-12-22T06:31:04.245Z,1024.68
2017-12-22T06:32:04.282Z,1024.72
2017-12-22T06:33:04.214Z,1024.72
2017-12-22T06:34:04.195Z,1024.73
2017-12-22T06:35:04.217Z,1024.75
2017-12-22T06:36:04.158Z,1024.74
2017-12-22T06:37:04.141Z,1024.76
2017-12-22T06:38:04.124Z,1024.76
2017-12-22T06:39:04.194Z,1024.75
2017-12-22T06:40:04.121Z,1024.74
2017-12-22T06:41:04.076Z,1024.76
2017-12-22T06:42:04.066Z,1024.77
2017-12-22T06:43:04.064Z,1024.77
2017-12-22T06:44:04.018Z,1024.77
2017-12-22T06:45:04.013Z,1024.79
2017-12-22T06:46:04.066Z,1024.81
2017-12-22T06:47:03.973Z,1024.87
2017-12-22T06:48:03.982Z,1024.86
2017-12-22T06:49:03.911Z,1024.91
2017-12-22T06:50:03.896Z,1024.95
2017-12-22T06:51:03.916Z,1024.96
2017-12-22T06:52:03.944Z,1024.98
2017-12-22T06:53:03.852Z,1024.97
2017-12-22T06:54:03.841Z,1024.98
2017-12-22T06:55:03.859Z,1024.96
2017-12-22T06:56:03.791Z,1024.95
2017-12-22T06:57:03.788Z,1024.99
2017-12-22T06:58:03.787Z,1024.97
2017-12-22T06:59:03.747Z,1024.97
2017-12-22T07:00:03.744Z,1024.98
2017-12-22T07:01:03.713Z,1024.96
2017-12-22T07:02:03.685Z,1025.03
2017-12-22T07:03:03.680Z,1025.03
2017-12-22T07:04:03.790Z,1025.02
2017-12-22T07:05:03.614Z,1025.03
2017-12-22T07:06:03.602Z,1025.05
2017-12-22T07:07:03.584Z,1025.02
2017-12-22T07:08:03.570Z,1024.97
2017-12-22T07:09:03.558Z,1024.97
2017-12-22T07:10:03.537Z,1024.97
2017-12-22T07:11:03.516Z,1024.98
2017-12-22T07:12:03.504Z,1025.00
2017-12-22T07:13:03.467Z,1025.00
2017-12-22T07:14:03.454Z,1025.03
2017-12-22T07:15:03.498Z,1025.05
2017-12-22T07:16:03.426Z,1025.07
2017-12-22T07:17:03.401Z,1025.06
2017-12-22T07:18:03.381Z,1025.09
2017-12-22T07:19:03.366Z,1025.08
2017-12-22T07:20:03.347Z,1025.09
2017-12-22T07:21:03.324Z,1025.07
2017-12-22T07:22:03.314Z,1025.09
2017-12-22T07:23:03.312Z,1025.10
2017-12-22T07:24:03.268Z,1025.12
2017-12-22T07:25:03.262Z,1025.10
2017-12-22T07:26:03.240Z,1025.10
2017-12-22T07:27:03.236Z,1025.12
2017-12-22T07:28:03.233Z,1025.13
2017-12-22T07:29:03.176Z,1025.14
2017-12-22T07:30:03.168Z,1025.08
2017-12-22T07:31:03.281Z,1025.07
2017-12-22T07:32:03.124Z,1025.09
2017-12-22T07:33:03.099Z,1025.06
2017-12-22T07:34:03.099Z,1025.11
2017-12-22T07:35:03.182Z,1025.10
2017-12-22T07:36:03.044Z,1025.10
2017-12-22T07:37:03.028Z,1025.13
2017-12-22T07:38:03.061Z,1025.10
2017-12-22T07:39:03.120Z,1025.12
2017-12-22T07:40:02.983Z,1025.12
2017-12-22T07:41:02.964Z,1025.12
2017-12-22T07:42:02.968Z,1025.15
2017-12-22T07:43:02.936Z,1025.17
2017-12-22T07:44:02.981Z,1025.20
2017-12-22T07:45:02.878Z,1025.20
2017-12-22T07:46:02.909Z,1025.20
2017-12-22T07:47:02.859Z,1025.23
2017-12-22T07:48:02.821Z,1025.24
2017-12-22T07:49:02.821Z,1025.24
2017-12-22T07:50:02.797Z,1025.18
2017-12-22T07:51:02.815Z,1025.14
2017-12-22T07:52:02.822Z,1025.16
2017-12-22T07:53:02.840Z,1025.17
2017-12-22T07:54:02.732Z,1025.21
2017-12-22T07:55:02.743Z,1025.22
2017-12-22T07:56:02.697Z,1025.25
2017-12-22T07:57:02.659Z,1025.26
2017-12-22T07:58:02.649Z,1025.30
2017-12-22T07:59:02.745Z,1025.34
2017-12-22T08:00:02.682Z,1025.36
2017-12-22T08:01:02.585Z,1025.39
2017-12-22T08:02:02.585Z,1025.42
2017-12-22T08:03:02.581Z,1025.42
2017-12-22T08:04:02.596Z,1025.47
2017-12-22T08:05:02.575Z,1025.51
2017-12-22T08:06:02.508Z,1025.59
2017-12-22T08:07:02.500Z,1025.55
2017-12-22T08:08:02.596Z,1025.58
2017-12-22T08:09:02.465Z,1025.56
2017-12-22T08:10:02.425Z,1025.57
2017-12-22T08:11:02.395Z,1025.59
2017-12-22T08:12:02.384Z,1025.56
2017-12-22T08:13:02.361Z,1025.52
2017-12-22T08:14:02.346Z,1025.52
2017-12-22T08:15:02.345Z,1025.53
2017-12-22T08:16:02.327Z,1025.53
2017-12-22T08:17:02.286Z,1025.58
2017-12-22T08:18:02.333Z,1025.57
2017-12-22T08:19:02.381Z,1025.59
2017-12-22T08:20:02.251Z,1025.61
2017-12-22T08:21:02.230Z,1025.60
2017-12-22T08:22:02.263Z,1025.58
2017-12-22T08:23:02.212Z,1025.57
2017-12-22T08:24:03.155Z,1025.57
2017-12-22T08:25:02.243Z,1025.56
2017-12-22T08:26:02.128Z,1025.63
2017-12-22T08:27:02.161Z,1025.58
2017-12-22T08:28:02.123Z,1025.59
2017-12-22T08:29:02.100Z,1025.59
2017-12-22T08:30:02.045Z,1025.63
2017-12-22T08:31:02.062Z,1025.62
2017-12-22T08:32:02.657Z,1025.65
2017-12-22T08:33:02.663Z,1025.60
2017-12-22T08:34:01.999Z,1025.61
2017-12-22T08:35:01.995Z,1025.68
2017-12-22T08:36:02.000Z,1025.68
2017-12-22T08:37:01.982Z,1025.74
2017-12-22T08:38:01.969Z,1025.75
2017-12-22T08:39:01.900Z,1025.79
2017-12-22T08:40:01.985Z,1025.79
2017-12-22T08:41:01.870Z,1025.80
2017-12-22T08:42:01.829Z,1025.82
2017-12-22T08:43:01.821Z,1025.83
2017-12-22T08:44:01.814Z,1025.84
2017-12-22T08:45:01.794Z,1025.88
2017-12-22T08:46:01.758Z,1025.92
2017-12-22T08:47:01.762Z,1025.93
2017-12-22T08:48:01.738Z,1025.91
2017-12-22T08:49:01.715Z,1025.93
2017-12-22T08:50:01.689Z,1025.97
2017-12-22T08:51:01.683Z,1026.00
2017-12-22T08:52:01.666Z,1025.99
2017-12-22T08:53:01.656Z,1025.98
2017-12-22T08:54:01.642Z,1025.98
2017-12-22T08:55:01.601Z,1026.01
2017-12-22T08:56:01.598Z,1026.02
2017-12-22T08:57:01.562Z,1026.05
2017-12-22T08:58:01.547Z,1026.08
2017-12-22T08:59:01.543Z,1026.11
2017-12-22T09:00:01.550Z,1026.13
2017-12-22T09:01:01.538Z,1026.09
2017-12-22T09:02:01.475Z,1026.15
2017-12-22T09:03:01.460Z,1026.18
2017-12-22T09:04:01.462Z,1026.16
2017-12-22T09:05:01.426Z,1026.21
2017-12-22T09:06:01.455Z,1026.22
2017-12-22T09:07:01.386Z,1026.31
2017-12-22T09:08:01.420Z,1026.30
2017-12-22T09:09:01.489Z,1026.28
2017-12-22T09:10:01.359Z,1026.30
2017-12-22T09:11:01.321Z,1026.27
2017-12-22T09:12:01.313Z,1026.21
2017-12-22T09:13:01.284Z,1026.17
2017-12-22T09:14:01.260Z,1026.09
2017-12-22T09:15:01.273Z,1026.08
2017-12-22T09:16:01.232Z,1026.10
2017-12-22T09:17:01.241Z,1026.07
2017-12-22T09:18:01.250Z,1026.10
2017-12-22T09:19:01.187Z,1026.11
2017-12-22T09:20:01.242Z,1026.14
2017-12-22T09:21:01.199Z,1026.16
2017-12-22T09:22:01.123Z,1026.17
2017-12-22T09:23:01.117Z,1026.15
2017-12-22T09:24:01.086Z,1026.14
2017-12-22T09:25:01.123Z,1026.19
2017-12-22T09:26:01.079Z,1026.20
2017-12-22T09:27:01.671Z,1026.25
2017-12-22T09:28:01.053Z,1026.29
2017-12-22T09:29:01.103Z,1026.29
2017-12-22T09:30:01.670Z,1026.25
2017-12-22T09:31:01.101Z,1026.20
2017-12-22T09:32:00.958Z,1026.18
2017-12-22T09:33:00.937Z,1026.15
2017-12-22T09:34:00.977Z,1026.17
2017-12-22T09:35:00.936Z,1026.18
2017-12-22T09:36:00.897Z,1026.19
2017-12-22T09:37:00.867Z,1026.18
2017-12-22T09:38:00.870Z,1026.20
2017-12-22T09:39:00.848Z,1026.29
2017-12-22T09:40:00.895Z,1026.28
2017-12-22T09:41:00.809Z,1026.35
2017-12-22T09:42:00.791Z,1026.35
2017-12-22T09:43:00.784Z,1026.35
2017-12-22T09:44:00.725Z,1026.39
2017-12-22T09:45:00.716Z,1026.40
2017-12-22T09:46:00.701Z,1026.38
2017-12-22T09:47:01.178Z,1026.39
2017-12-22T09:48:00.664Z,1026.37
2017-12-22T09:49:00.644Z,1026.40
2017-12-22T09:50:01.180Z,1026.36
2017-12-22T09:51:00.687Z,1026.36
2017-12-22T09:52:00.583Z,1026.42
2017-12-22T09:53:00.594Z,1026.39
2017-12-22T09:54:00.564Z,1026.40
2017-12-22T09:55:00.565Z,1026.40
2017-12-22T09:56:01.176Z,1026.39
2017-12-22T09:57:00.491Z,1026.36
2017-12-22T09:58:00.594Z,1026.32
2017-12-22T09:59:00.532Z,1026.30
2017-12-22T10:00:00.449Z,1026.27
2017-12-22T10:01:00.454Z,1026.19
2017-12-22T10:02:00.421Z,1026.12
2017-12-22T10:03:00.466Z,1026.15
2017-12-22T10:04:00.397Z,1026.17
2017-12-22T10:05:00.393Z,1026.23
2017-12-22T10:06:00.417Z,1026.26
2017-12-22T10:07:00.333Z,1026.37
2017-12-22T10:08:00.310Z,1026.38
2017-12-22T10:09:00.350Z,1026.36
2017-12-22T10:10:00.293Z,1026.33
2017-12-22T10:11:00.258Z,1026.26
2017-12-22T10:12:00.263Z,1026.27
2017-12-22T10:13:00.230Z,1026.26
2017-12-22T10:14:00.281Z,1026.26
2017-12-22T10:15:00.215Z,1026.25
2017-12-22T10:16:00.201Z,1026.21
2017-12-22T10:17:00.162Z,1026.19
2017-12-22T10:18:00.157Z,1026.20
2017-12-22T10:19:00.216Z,1026.22
2017-12-22T10:20:00.143Z,1026.26
2017-12-22T10:21:00.160Z,1026.28
2017-12-22T10:22:00.081Z,1026.25
2017-12-22T10:23:00.124Z,1026.29
2017-12-22T10:24:00.102Z,1026.23
2017-12-22T10:25:00.093Z,1026.19
2017-12-22T10:26:00.010Z,1026.19
2017-12-22T10:26:59.999Z,1026.20
2017-12-22T10:27:59.971Z,1026.26
2017-12-22T10:28:59.962Z,1026.28
2017-12-22T10:29:59.991Z,1026.30
2017-12-22T10:31:00.034Z,1026.33
2017-12-22T10:31:59.960Z,1026.33
2017-12-22T10:33:00.044Z,1026.35
2017-12-22T10:33:59.940Z,1026.35
2017-12-22T10:34:59.865Z,1026.36
2017-12-22T10:35:59.834Z,1026.34
2017-12-22T10:36:59.811Z,1026.33
2017-12-22T10:37:59.826Z,1026.33
2017-12-22T10:39:00.834Z,1026.29
2017-12-22T10:39:59.802Z,1026.27
2017-12-22T10:40:59.802Z,1026.26
2017-12-22T10:41:59.737Z,1026.27
2017-12-22T10:42:59.884Z,1026.29
2017-12-22T10:43:59.734Z,1026.30
2017-12-22T10:44:59.710Z,1026.25
2017-12-22T10:45:59.703Z,1026.25
2017-12-22T10:46:59.652Z,1026.22
2017-12-22T10:47:59.699Z,1026.12
2017-12-22T10:48:59.614Z,1026.08
2017-12-22T10:49:59.597Z,1026.05
2017-12-22T10:50:59.710Z,1026.07
2017-12-22T10:51:59.614Z,1026.04
2017-12-22T10:52:59.559Z,1026.08
2017-12-22T10:53:59.699Z,1026.12
2017-12-22T10:55:00.195Z,1026.14
2017-12-22T10:55:59.534Z,1026.18
2017-12-22T10:56:59.543Z,1026.16
2017-12-22T10:57:59.465Z,1026.19
2017-12-22T10:58:59.461Z,1026.17
2017-12-22T11:00:00.198Z,1026.20
2017-12-22T11:00:59.428Z,1026.19
2017-12-22T11:01:59.410Z,1026.18
2017-12-22T11:02:59.417Z,1026.17
2017-12-22T11:03:59.348Z,1026.18
2017-12-22T11:04:59.327Z,1026.22
2017-12-22T11:05:59.308Z,1026.21
2017-12-22T11:07:00.205Z,1026.20
2017-12-22T11:07:59.309Z,1026.18
2017-12-22T11:08:59.265Z,1026.17
2017-12-22T11:09:59.242Z,1026.14
2017-12-22T11:10:59.254Z,1026.15
2017-12-22T11:11:59.204Z,1026.11
2017-12-22T11:12:59.225Z,1026.10
2017-12-22T11:13:59.265Z,1026.07
2017-12-22T11:14:59.410Z,1026.11
2017-12-22T11:15:59.136Z,1026.11
2017-12-22T11:16:59.145Z,1026.12
2017-12-22T11:17:59.224Z,1026.18
2017-12-22T11:18:59.105Z,1026.21
2017-12-22T11:19:59.084Z,1026.24
2017-12-22T11:20:59.097Z,1026.21
2017-12-22T11:21:59.071Z,1026.23
2017-12-22T11:22:59.027Z,1026.21
2017-12-22T11:23:59.003Z,1026.25
2017-12-22T11:24:58.996Z,1026.28
2017-12-22T11:25:58.999Z,1026.35
2017-12-22T11:26:58.983Z,1026.32
2017-12-22T11:27:58.945Z,1026.37
2017-12-22T11:28:58.914Z,1026.42
2017-12-22T11:29:58.906Z,1026.40
2017-12-22T11:30:58.888Z,1026.43
2017-12-22T11:31:58.892Z,1026.45
2017-12-22T11:32:58.869Z,1026.51
2017-12-22T11:33:58.863Z,1026.49
2017-12-22T11:34:58.804Z,1026.48
2017-12-22T11:35:58.819Z,1026.52
2017-12-22T11:36:58.785Z,1026.50
2017-12-22T11:37:58.776Z,1026.54
2017-12-22T11:38:58.738Z,1026.58
2017-12-22T11:39:58.760Z,1026.61
2017-12-22T11:40:58.694Z,1026.62
2017-12-22T11:41:58.731Z,1026.61
2017-12-22T11:42:58.668Z,1026.59
2017-12-22T11:43:58.688Z,1026.57
2017-12-22T11:44:58.673Z,1026.60
2017-12-22T11:45:58.616Z,1026.56
2017-12-22T11:46:58.609Z,1026.55
2017-12-22T11:47:58.576Z,1026.58
2017-12-22T11:48:58.569Z,1026.60
2017-12-22T11:49:58.537Z,1026.53
2017-12-22T11:50:58.525Z,1026.54
2017-12-22T11:51:58.520Z,1026.57
2017-12-22T11:52:58.567Z,1026.54
2017-12-22T11:53:58.463Z,1026.57
2017-12-22T11:54:58.476Z,1026.53
2017-12-22T11:55:58.463Z,1026.50
2017-12-22T11:56:58.452Z,1026.49
2017-12-22T11:57:58.425Z,1026.44
2017-12-22T11:58:58.396Z,1026.42
2017-12-22T11:59:58.388Z,1026.45
2017-12-22T12:00:58.474Z,1026.45
2017-12-22T12:01:58.395Z,1026.42
2017-12-22T12:02:58.319Z,1026.39
2017-12-22T12:03:58.303Z,1026.38
2017-12-22T12:04:58.278Z,1026.36